createdAt,value
2022-09-07T00:02:15.424Z,71.87
2022-09-07T00:05:00.714Z,71.63
2022-09-07T00:07:46.170Z,72.17
2022-09-07T00:10:31.672Z,72.39
2022-09-07T00:13:16.946Z,72.49
2022-09-07T00:16:08.347Z,72.77
2022-09-07T00:19:00.119Z,73.10
2022-09-07T00:21:46.019Z,72.60
2022-09-07T00:24:31.219Z,72.11
2022-09-07T00:27:16.777Z,72.63
2022-09-07T00:30:02.141Z,72.30
2022-09-07T00:32:47.513Z,72.77
2022-09-07T00:35:32.857Z,72.58
2022-09-07T00:38:18.450Z,72.91
2022-09-07T00:41:04.295Z,72.57
2022-09-07T00:43:56.010Z,73.27
2022-09-07T00:46:41.460Z,73.00
2022-09-07T00:49:27.167Z,73.26
2022-09-07T00:52:14.245Z,72.85
2022-09-07T00:55:06.305Z,73.10
2022-09-07T00:57:55.744Z,72.93
2022-09-07T01:00:44.667Z,73.02
2022-09-07T01:03:34.972Z,72.96
2022-09-07T01:06:26.580Z,73.25
2022-09-07T01:09:16.188Z,73.67
2022-09-07T01:12:02.789Z,73.13
2022-09-07T01:14:51.789Z,73.52
2022-09-07T01:18:07.608Z,73.46
2022-09-07T01:21:24.973Z,73.13
2022-09-07T01:24:24.617Z,72.92
2022-09-07T01:27:19.431Z,73.27
2022-09-07T01:30:10.661Z,73.62
2022-09-07T01:33:06.669Z,73.97
2022-09-07T01:36:03.872Z,73.59
2022-09-07T01:39:02.113Z,72.98
2022-09-07T01:41:54.667Z,73.20
2022-09-07T01:45:01.408Z,74.01
2022-09-07T01:47:52.087Z,73.82
2022-09-07T01:50:44.797Z,74.10
2022-09-07T01:53:30.081Z,73.76
2022-09-07T01:56:32.480Z,73.48
2022-09-07T01:59:21.727Z,73.78
2022-09-07T02:02:16.676Z,73.63
2022-09-07T02:05:09.413Z,74.25
2022-09-07T02:08:04.735Z,74.24
2022-09-07T02:10:55.527Z,73.93
2022-09-07T02:13:56.139Z,73.88
2022-09-07T02:16:51.925Z,73.47
2022-09-07T02:19:42.765Z,73.79
2022-09-07T02:22:32.018Z,74.02
2022-09-07T02:25:28.507Z,74.63
2022-09-07T02:28:22.304Z,74.63
2022-09-07T02:31:08.345Z,74.11
2022-09-07T02:33:53.602Z,74.18
2022-09-07T02:36:44.383Z,74.18
2022-09-07T02:39:30.102Z,74.16
2022-09-07T02:42:15.190Z,74.54
2022-09-07T02:45:04.440Z,74.24
2022-09-07T02:47:50.157Z,74.66
2022-09-07T02:50:44.967Z,73.90
2022-09-07T02:53:58.758Z,74.62
2022-09-07T02:57:14.098Z,73.90
2022-09-07T03:00:15.380Z,73.95
2022-09-07T03:03:11.011Z,74.45
2022-09-07T03:06:03.538Z,74.66
2022-09-07T03:08:53.043Z,74.59
2022-09-07T03:11:39.004Z,73.78
2022-09-07T03:14:26.328Z,74.09
2022-09-07T03:17:13.064Z,74.23
2022-09-07T03:19:58.959Z,74.22
2022-09-07T03:22:46.667Z,74.04
2022-09-07T03:25:32.352Z,74.37
2022-09-07T03:28:17.653Z,74.53
2022-09-07T03:31:03.175Z,74.07
2022-09-07T03:33:48.760Z,74.03
2022-09-07T03:36:35.042Z,74.33
2022-09-07T03:39:23.695Z,74.45
2022-09-07T03:42:09.256Z,74.15
2022-09-07T03:44:54.425Z,74.17
2022-09-07T03:47:40.127Z,74.00
2022-09-07T03:50:25.651Z,74.44
2022-09-07T03:53:11.105Z,74.34
2022-09-07T03:56:02.130Z,74.86
2022-09-07T03:58:48.785Z,74.72
2022-09-07T04:01:34.678Z,74.83
2022-09-07T04:04:20.186Z,75.22
2022-09-07T04:07:06.763Z,74.89
2022-09-07T04:09:52.497Z,74.95
2022-09-07T04:12:37.946Z,75.32
2022-09-07T04:15:23.722Z,75.14
2022-09-07T04:18:09.011Z,75.32
2022-09-07T04:20:59.094Z,75.62
2022-09-07T04:23:45.503Z,75.28
2022-09-07T04:26:33.689Z,75.25
2022-09-07T04:29:19.014Z,74.97
2022-09-07T04:32:04.457Z,74.89
2022-09-07T04:34:51.955Z,75.03
2022-09-07T04:37:37.621Z,75.30
2022-09-07T04:40:22.949Z,75.26
2022-09-07T04:43:09.675Z,75.68
2022-09-07T04:45:55.709Z,76.42
2022-09-07T04:48:41.040Z,76.28
2022-09-07T04:51:29.330Z,76.39
2022-09-07T04:54:14.815Z,76.54
2022-09-07T04:57:00.393Z,76.17
2022-09-07T04:59:45.713Z,76.46
2022-09-07T05:02:31.056Z,76.70
2022-09-07T05:05:16.693Z,76.40
2022-09-07T05:08:02.141Z,76.26
2022-09-07T05:10:56.858Z,76.20
2022-09-07T05:13:43.017Z,76.32
2022-09-07T05:16:30.365Z,76.29
2022-09-07T05:19:16.473Z,76.06
2022-09-07T05:22:02.401Z,76.29
2022-09-07T05:24:48.217Z,76.29
2022-09-07T05:27:33.767Z,76.80
2022-09-07T05:36:30.466Z,77.01
2022-09-07T05:39:16.230Z,77.24
2022-09-07T05:42:01.643Z,77.58
2022-09-07T05:44:46.968Z,77.30
2022-09-07T05:47:32.390Z,77.61
2022-09-07T05:50:17.876Z,77.85
2022-09-07T05:53:03.180Z,78.71
2022-09-07T05:55:51.715Z,79.00
2022-09-07T05:58:37.576Z,78.36
2022-09-07T06:01:23.213Z,78.51
2022-09-07T06:04:08.776Z,77.87
2022-09-07T06:13:05.398Z,78.01
2022-09-07T06:15:50.741Z,77.75
2022-09-07T06:18:39.347Z,78.09
2022-09-07T06:21:24.803Z,78.19
2022-09-07T06:24:10.228Z,77.61
2022-09-07T06:26:55.669Z,77.64
2022-09-07T06:29:40.980Z,78.00
2022-09-07T06:35:27.767Z,79.21
2022-09-07T06:38:13.329Z,79.04
2022-09-07T06:44:08.036Z,78.20
2022-09-07T06:49:46.997Z,79.49
2022-09-07T06:55:44.908Z,78.70
2022-09-07T06:58:30.500Z,79.10
2022-09-07T07:01:20.316Z,78.91
2022-09-07T07:04:05.823Z,79.06
2022-09-07T07:06:51.147Z,78.60
2022-09-07T07:09:36.474Z,79.36
2022-09-07T07:15:06.730Z,79.55
2022-09-07T07:17:58.974Z,78.52
2022-09-07T07:20:47.845Z,78.79
2022-09-07T07:23:34.480Z,78.67
2022-09-07T07:26:23.760Z,79.07
2022-09-07T07:29:08.875Z,78.84
2022-09-07T07:31:54.474Z,78.13
2022-09-07T07:34:39.792Z,78.43
2022-09-07T07:37:28.181Z,77.86
2022-09-07T07:40:15.798Z,77.45
2022-09-07T07:43:03.065Z,77.54
2022-09-07T07:45:55.730Z,77.23
2022-09-07T07:48:41.958Z,77.53
2022-09-07T07:51:27.612Z,77.62
2022-09-07T07:54:12.759Z,77.51
2022-09-07T07:56:58.080Z,77.65
2022-09-07T07:59:43.360Z,77.84
2022-09-07T08:02:28.751Z,78.02
2022-09-07T08:05:14.253Z,78.21
2022-09-07T08:07:59.489Z,78.69
2022-09-07T08:10:47.319Z,78.87
2022-09-07T08:13:33.822Z,78.56
2022-09-07T08:16:19.586Z,78.12
2022-09-07T08:19:05.813Z,77.75
2022-09-07T08:21:51.192Z,78.05
2022-09-07T08:24:36.666Z,77.79
2022-09-07T08:27:22.012Z,77.80
2022-09-07T08:30:08.583Z,77.55
2022-09-07T08:32:53.867Z,77.60
2022-09-07T08:35:39.197Z,78.88
2022-09-07T08:38:25.336Z,78.42
2022-09-07T08:41:48.866Z,77.06
2022-09-07T08:44:37.572Z,77.02
2022-09-07T08:47:38.970Z,77.32
2022-09-07T08:50:29.561Z,77.36
2022-09-07T08:53:17.860Z,77.49
2022-09-07T08:56:12.275Z,77.53
2022-09-07T08:59:00.432Z,77.58
2022-09-07T09:02:27.053Z,77.55
2022-09-07T09:08:06.946Z,77.91
2022-09-07T09:11:05.983Z,77.93
2022-09-07T09:17:30.758Z,77.37
2022-09-07T09:20:24.021Z,77.47
2022-09-07T09:23:13.117Z,76.80
2022-09-07T09:26:13.380Z,76.53
2022-09-07T09:29:11.453Z,76.47
2022-09-07T09:31:57.041Z,76.00
2022-09-07T09:35:00.668Z,75.29
2022-09-07T09:37:46.536Z,74.93
2022-09-07T09:40:37.079Z,74.71
2022-09-07T09:43:26.009Z,74.40
2022-09-07T09:46:33.463Z,74.31
2022-09-07T09:49:23.909Z,74.32
2022-09-07T09:52:41.791Z,74.23
2022-09-07T09:55:35.854Z,74.24
2022-09-07T10:04:44.976Z,73.58
2022-09-07T10:07:31.917Z,73.76
2022-09-07T10:10:36.425Z,73.75
2022-09-07T10:13:26.890Z,73.67
2022-09-07T10:16:12.543Z,73.55
2022-09-07T10:18:59.520Z,73.86
2022-09-07T10:21:45.579Z,73.83
2022-09-07T10:24:39.662Z,73.59
2022-09-07T10:27:34.841Z,73.30
2022-09-07T10:30:20.369Z,73.17
2022-09-07T10:33:18.806Z,72.56
2022-09-07T10:36:24.542Z,72.40
2022-09-07T10:39:35.781Z,72.03
2022-09-07T10:42:24.260Z,71.29
2022-09-07T10:45:31.622Z,71.11
2022-09-07T10:48:32.663Z,70.44
2022-09-07T10:51:24.502Z,70.17
2022-09-07T10:54:42.267Z,70.06
2022-09-07T10:58:05.235Z,69.21
2022-09-07T11:00:53.928Z,68.18
2022-09-07T11:03:48.956Z,68.06
2022-09-07T11:06:49.155Z,67.81
2022-09-07T11:10:05.532Z,67.50
2022-09-07T11:12:54.133Z,67.72
2022-09-07T11:16:05.607Z,67.69
2022-09-07T11:19:35.008Z,67.77
2022-09-07T11:22:25.527Z,67.28
2022-09-07T11:25:31.359Z,67.31
2022-09-07T11:28:23.246Z,66.42
2022-09-07T11:31:22.095Z,66.40
2022-09-07T11:34:25.210Z,65.89
2022-09-07T11:37:18.889Z,66.56
2022-09-07T11:40:14.285Z,66.11
2022-09-07T11:43:18.284Z,65.43
2022-09-07T11:46:10.196Z,65.23
2022-09-07T11:48:56.700Z,65.23
2022-09-07T11:51:54.092Z,65.46
2022-09-07T11:54:42.587Z,65.79
2022-09-07T11:57:49.002Z,66.25
2022-09-07T12:01:05.408Z,66.36
2022-09-07T12:04:03.026Z,66.56
2022-09-07T12:07:18.118Z,66.42
2022-09-07T12:10:39.082Z,66.39
2022-09-07T12:13:55.543Z,66.35
2022-09-07T12:16:58.181Z,65.37
2022-09-07T12:19:44.168Z,65.00
2022-09-07T12:22:29.734Z,64.97
2022-09-07T12:25:18.566Z,64.63
2022-09-07T12:28:04.178Z,64.37
2022-09-07T12:31:12.526Z,64.09
2022-09-07T12:34:33.515Z,64.00
2022-09-07T12:37:27.494Z,64.09
2022-09-07T12:40:32.359Z,63.01
2022-09-07T12:43:17.880Z,63.20
2022-09-07T12:46:03.724Z,62.86
2022-09-07T12:49:04.727Z,61.92
2022-09-07T12:52:16.759Z,61.18
2022-09-07T12:55:29.538Z,60.64
2022-09-07T12:58:31.503Z,60.24
2022-09-07T13:01:35.796Z,59.05
2022-09-07T13:04:41.168Z,59.32
2022-09-07T13:07:33.852Z,59.30
2022-09-07T13:10:35.995Z,58.78
2022-09-07T13:19:46.005Z,59.43
2022-09-07T13:22:31.417Z,58.98
2022-09-07T13:25:36.923Z,59.00
2022-09-07T13:28:23.749Z,58.87
2022-09-07T13:31:22.083Z,57.94
2022-09-07T13:34:36.104Z,58.74
2022-09-07T13:37:26.307Z,58.64
2022-09-07T13:40:18.015Z,58.71
2022-09-07T13:43:04.351Z,58.60
2022-09-07T13:45:55.580Z,57.63
2022-09-07T13:48:51.436Z,57.94
2022-09-07T13:51:47.738Z,57.89
2022-09-07T13:54:48.540Z,57.46
2022-09-07T13:58:05.365Z,55.10
2022-09-07T14:00:55.318Z,53.18
2022-09-07T14:03:57.184Z,53.21
2022-09-07T14:06:42.535Z,54.28
2022-09-07T14:09:27.793Z,53.50
2022-09-07T14:12:21.467Z,53.11
2022-09-07T14:15:19.206Z,51.62
2022-09-07T14:18:11.224Z,49.58
2022-09-07T14:20:58.693Z,49.72
2022-09-07T14:23:50.723Z,49.36
2022-09-07T14:26:36.007Z,50.67
2022-09-07T14:29:24.110Z,50.49
2022-09-07T14:32:13.336Z,49.32
2022-09-07T14:34:58.689Z,49.49
2022-09-07T14:37:46.178Z,44.57
2022-09-07T14:40:31.634Z,47.51
2022-09-07T14:43:33.044Z,47.04
2022-09-07T14:46:26.914Z,45.88
2022-09-07T14:49:20.580Z,46.66
2022-09-07T14:52:06.152Z,48.36
2022-09-07T14:54:52.924Z,48.46
2022-09-07T14:57:38.355Z,48.11
2022-09-07T15:00:31.439Z,48.37
2022-09-07T15:03:38.380Z,48.96
2022-09-07T15:09:40.452Z,50.90
2022-09-07T15:12:38.108Z,51.56
2022-09-07T15:15:33.862Z,51.61
2022-09-07T15:18:51.774Z,52.38
2022-09-07T15:21:37.687Z,52.81
2022-09-07T15:24:23.006Z,53.58
2022-09-07T15:27:27.138Z,53.56
2022-09-07T15:30:12.762Z,54.13
2022-09-07T15:32:58.299Z,54.57
2022-09-07T15:35:43.636Z,55.05
2022-09-07T15:41:34.842Z,55.54
2022-09-07T15:44:25.163Z,55.86
2022-09-07T15:50:17.554Z,56.08
2022-09-07T15:53:03.154Z,56.48
2022-09-07T15:55:54.898Z,56.96
2022-09-07T15:58:43.178Z,57.18
2022-09-07T16:04:33.714Z,57.18
2022-09-07T16:07:19.762Z,57.15
2022-09-07T16:10:06.098Z,57.24
2022-09-07T16:15:59.988Z,57.71
2022-09-07T16:18:47.271Z,58.00
2022-09-07T16:21:33.087Z,57.99
2022-09-07T16:24:18.395Z,58.14
2022-09-07T16:27:03.750Z,58.13
2022-09-07T16:29:49.254Z,58.15
2022-09-07T16:32:50.187Z,58.13
2022-09-07T16:35:35.842Z,58.23
2022-09-07T16:41:29.452Z,58.54
2022-09-07T16:44:15.055Z,58.50
2022-09-07T16:47:00.851Z,58.66
2022-09-07T16:49:46.478Z,58.80
2022-09-07T16:52:34.526Z,59.12
2022-09-07T16:55:19.966Z,59.32
2022-09-07T17:01:13.563Z,59.36
2022-09-07T17:03:59.510Z,59.37
2022-09-07T17:06:44.900Z,59.35
2022-09-07T17:09:30.579Z,59.25
2022-09-07T17:12:15.896Z,58.68
2022-09-07T17:15:01.191Z,57.40
2022-09-07T17:17:46.539Z,57.66
2022-09-07T17:20:32.006Z,57.64
2022-09-07T17:23:17.433Z,57.80
2022-09-07T17:26:13.881Z,57.61
2022-09-07T17:29:00.908Z,57.85
2022-09-07T17:34:52.107Z,58.29
2022-09-07T17:37:37.433Z,58.65
2022-09-07T17:40:23.577Z,58.89
2022-09-07T17:46:20.904Z,59.44
2022-09-07T17:49:10.213Z,59.80
2022-09-07T17:51:58.481Z,60.17
2022-09-07T17:54:44.028Z,60.44
2022-09-07T17:57:30.823Z,60.59
2022-09-07T18:00:16.234Z,61.12
2022-09-07T18:03:03.504Z,60.96
2022-09-07T18:05:53.271Z,60.75
2022-09-07T18:08:38.619Z,61.07
2022-09-07T18:14:30.170Z,61.92
2022-09-07T18:17:15.388Z,62.16
2022-09-07T18:20:01.023Z,62.26
2022-09-07T18:22:46.424Z,62.27
2022-09-07T18:25:31.740Z,62.53
2022-09-07T18:31:25.055Z,62.87
2022-09-07T18:34:11.782Z,63.07
2022-09-07T18:36:58.562Z,63.46
2022-09-07T18:39:43.952Z,63.23
2022-09-07T18:42:30.290Z,63.65
2022-09-07T18:45:31.222Z,63.75
2022-09-07T18:48:16.425Z,63.85
2022-09-07T18:51:02.422Z,63.72
2022-09-07T18:53:47.992Z,64.02
2022-09-07T18:56:33.384Z,63.99
2022-09-07T18:59:18.669Z,64.33
2022-09-07T19:02:06.357Z,64.90
2022-09-07T19:07:59.753Z,64.95
2022-09-07T19:10:46.480Z,64.73
2022-09-07T19:13:31.917Z,64.68
2022-09-07T19:16:19.458Z,64.85
2022-09-07T19:19:06.958Z,64.89
2022-09-07T19:21:52.811Z,65.40
2022-09-07T19:24:38.452Z,65.53
2022-09-07T19:27:23.601Z,65.63
2022-09-07T19:30:09.711Z,65.86
2022-09-07T19:32:54.956Z,65.97
2022-09-07T19:35:40.134Z,65.88
2022-09-07T19:38:25.459Z,65.88
2022-09-07T19:41:14.096Z,66.16
2022-09-07T19:44:00.255Z,66.44
2022-09-07T19:46:45.926Z,66.48
2022-09-07T19:49:31.818Z,66.33
2022-09-07T19:52:17.188Z,67.08
2022-09-07T19:55:03.998Z,66.70
2022-09-07T19:57:51.331Z,66.62
2022-09-07T20:00:39.223Z,66.64
2022-09-07T20:03:24.794Z,66.51
2022-09-07T20:06:12.810Z,67.18
2022-09-07T20:09:00.113Z,67.39
2022-09-07T20:11:47.499Z,67.97
2022-09-07T20:14:33.216Z,67.54
2022-09-07T20:17:18.527Z,67.81
2022-09-07T20:20:05.435Z,67.29
2022-09-07T20:22:51.321Z,68.01
2022-09-07T20:25:36.767Z,68.05
2022-09-07T20:28:21.965Z,68.15
2022-09-07T20:31:10.296Z,68.15
2022-09-07T20:33:56.894Z,67.91
2022-09-07T20:36:42.227Z,67.91
2022-09-07T20:39:27.556Z,68.29
2022-09-07T20:42:13.086Z,68.00
2022-09-07T20:44:58.278Z,68.68
2022-09-07T20:47:44.769Z,68.49
2022-09-07T20:50:30.264Z,68.54
2022-09-07T20:53:16.872Z,68.36
2022-09-07T20:56:03.685Z,69.02
2022-09-07T20:58:53.657Z,69.05
2022-09-07T21:01:39.214Z,68.54
2022-09-07T21:04:26.422Z,68.49
2022-09-07T21:07:12.110Z,68.75
2022-09-07T21:09:57.339Z,68.86
2022-09-07T21:12:42.956Z,69.27
2022-09-07T21:15:29.334Z,69.56
2022-09-07T21:18:16.506Z,69.76
2022-09-07T21:21:20.093Z,69.94
2022-09-07T21:24:07.132Z,69.50
2022-09-07T21:26:52.680Z,69.69
2022-09-07T21:29:37.934Z,69.91
2022-09-07T21:32:23.570Z,70.02
2022-09-07T21:35:10.177Z,70.03
2022-09-07T21:37:55.915Z,70.25
2022-09-07T21:40:41.518Z,70.38
2022-09-07T21:43:27.319Z,69.87
2022-09-07T21:46:15.980Z,70.53
2022-09-07T21:49:02.125Z,70.37
2022-09-07T21:51:47.703Z,70.48
2022-09-07T21:54:33.202Z,70.21
2022-09-07T21:57:18.603Z,70.69
2022-09-07T22:00:05.568Z,70.67
2022-09-07T22:02:53.927Z,70.75
2022-09-07T22:05:39.651Z,71.02
2022-09-07T22:08:24.970Z,71.31
2022-09-07T22:11:13.578Z,71.06
2022-09-07T22:14:01.946Z,70.77
2022-09-07T22:16:47.629Z,71.10
2022-09-07T22:19:33.159Z,70.91
2022-09-07T22:22:18.836Z,70.95
2022-09-07T22:25:05.407Z,71.16
2022-09-07T22:27:50.886Z,71.26
2022-09-07T22:30:36.209Z,71.34
2022-09-07T22:33:22.027Z,71.58
2022-09-07T22:36:12.640Z,71.74
2022-09-07T22:39:00.830Z,71.27
2022-09-07T22:41:47.471Z,71.29
2022-09-07T22:47:36.123Z,71.81
2022-09-07T22:50:21.596Z,71.61
2022-09-07T22:53:06.883Z,71.93
2022-09-07T22:55:52.562Z,71.85
2022-09-07T22:58:38.624Z,71.81
2022-09-07T23:01:24.756Z,72.09
2022-09-07T23:04:11.175Z,72.08
2022-09-07T23:06:56.920Z,72.10
2022-09-07T23:09:42.281Z,71.93
2022-09-07T23:12:28.025Z,71.96
2022-09-07T23:15:13.226Z,71.75
2022-09-07T23:17:58.872Z,71.76
2022-09-07T23:20:44.469Z,71.97
2022-09-07T23:23:30.705Z,71.99
2022-09-07T23:26:15.913Z,71.84
2022-09-07T23:29:04.528Z,72.25
2022-09-07T23:31:50.057Z,72.78
2022-09-07T23:34:35.730Z,73.03
2022-09-07T23:37:21.111Z,73.27
2022-09-07T23:40:08.612Z,73.17
2022-09-07T23:42:54.220Z,73.68
2022-09-07T23:45:39.681Z,73.39
2022-09-07T23:48:25.731Z,73.45
2022-09-07T23:51:12.316Z,73.40
2022-09-07T23:53:57.676Z,73.27
2022-09-07T23:56:43.248Z,73.32
2022-09-07T23:59:28.432Z,73.51
